Time;durP1;ratioP1;P1;durP2;ratioP2;P2;SDS_P1;SDS_P2;PMS_P1;PMS_P2;Temp;Humidity;BMP_temperature;BMP_pressure;BME280_temperature;BME280_humidity;BME280_pressure;Samples;Min_cycle;Max_cycle;Signal;HPM_P1;HPM_P2
2021/06/26 00:00:33;;;;;;;12.07;8.45;;;;;;;17.21;77.87;96578.31;5073943;28;20052;-75
2021/06/26 00:03:00;;;;;;;11.60;8.85;;;;;;;17.19;78.11;96577.88;5073481;28;20052;-75
2021/06/26 00:05:26;;;;;;;12.57;9.23;;;;;;;17.19;78.24;96577.06;5073840;28;20041;-77
2021/06/26 00:07:53;;;;;;;16.80;9.60;;;;;;;17.14;78.28;96583.66;5073885;28;20044;-75
2021/06/26 00:10:19;;;;;;;14.15;8.68;;;;;;;17.05;78.69;96582.22;5073512;28;20044;-76
2021/06/26 00:12:47;;;;;;;15.32;10.68;;;;;;;16.94;79.04;96582.75;5073871;28;20037;-77
2021/06/26 00:15:14;;;;;;;12.52;9.30;;;;;;;16.86;79.53;96586.47;5073480;28;20049;-77
2021/06/26 00:17:40;;;;;;;16.02;9.95;;;;;;;16.79;79.75;96583.50;5073797;28;20068;-74
2021/06/26 00:20:08;;;;;;;14.07;10.45;;;;;;;16.77;79.99;96588.59;5073236;28;20045;-75
2021/06/26 00:22:34;;;;;;;14.35;10.48;;;;;;;16.77;79.93;96585.03;5073555;28;20036;-75
2021/06/26 00:25:01;;;;;;;15.48;10.55;;;;;;;16.75;79.90;96579.06;5072827;28;20049;-75
2021/06/26 00:27:28;;;;;;;14.77;10.98;;;;;;;16.74;79.99;96575.53;5073360;28;20049;-75
2021/06/26 00:29:56;;;;;;;15.45;10.73;;;;;;;16.74;79.99;96583.78;5073654;28;20041;-76
2021/06/26 00:32:22;;;;;;;16.27;11.95;;;;;;;16.71;80.05;96573.50;5073110;28;20036;-75
2021/06/26 00:34:49;;;;;;;15.45;11.73;;;;;;;16.70;80.24;96582.84;5073045;28;20044;-76
2021/06/26 00:37:15;;;;;;;14.98;11.07;;;;;;;16.69;80.20;96573.78;5072917;28;20041;-75
2021/06/26 00:39:42;;;;;;;14.98;11.32;;;;;;;16.68;80.26;96568.66;5073565;28;20067;-75
2021/06/26 00:42:09;;;;;;;18.73;11.43;;;;;;;16.66;80.45;96562.72;5072909;28;20040;-75
2021/06/26 00:44:35;;;;;;;15.63;11.43;;;;;;;16.68;80.44;96563.16;5073354;28;20045;-76
2021/06/26 00:47:11;;;;;;;15.05;11.02;;;;;;;16.72;79.71;96564.09;5072675;28;20040;-75
2021/06/26 00:49:37;;;;;;;15.02;11.00;;;;;;;16.69;79.57;96564.75;5073147;28;20053;-76
2021/06/26 00:52:04;;;;;;;15.25;11.15;;;;;;;16.66;79.98;96565.47;5072757;28;20040;-75
2021/06/26 00:54:31;;;;;;;19.98;12.07;;;;;;;16.62;80.08;96573.63;5073205;28;20060;-75
2021/06/26 00:56:58;;;;;;;18.27;11.57;;;;;;;16.58;80.39;96569.16;5073236;28;20123;-75
2021/06/26 00:59:25;;;;;;;16.30;11.55;;;;;;;16.54;80.34;96573.75;5072491;28;20048;-75
2021/06/26 01:01:51;;;;;;;19.33;12.25;;;;;;;16.51;80.83;96563.47;5070328;28;20037;-76
2021/06/26 01:04:19;;;;;;;20.25;12.10;;;;;;;16.48;80.98;96569.66;5072649;28;20044;-74
2021/06/26 01:06:46;;;;;;;17.75;12.25;;;;;;;16.46;81.02;96561.78;5072910;28;20423;-75
2021/06/26 01:09:12;;;;;;;20.00;11.93;;;;;;;16.46;81.09;96561.00;5072592;28;20048;-74
2021/06/26 01:11:39;;;;;;;17.08;12.20;;;;;;;16.46;81.16;96555.50;5073018;28;20048;-75
2021/06/26 01:14:05;;;;;;;18.02;12.25;;;;;;;16.46;81.49;96558.25;5072283;28;20048;-74
2021/06/26 01:16:32;;;;;;;14.52;10.95;;;;;;;16.44;81.37;96566.81;5072833;28;20044;-75
2021/06/26 01:18:58;;;;;;;17.85;11.27;;;;;;;16.49;80.56;96565.75;5072553;28;20049;-75
2021/06/26 01:21:26;;;;;;;18.05;11.05;;;;;;;16.48;80.51;96559.47;5072236;28;20423;-75
2021/06/26 01:23:55;;;;;;;17.33;11.25;;;;;;;16.43;80.31;96560.53;5072537;28;20048;-75
2021/06/26 01:26:25;;;;;;;20.08;12.65;;;;;;;16.39;80.78;96556.91;5072084;28;20131;-75
2021/06/26 01:28:51;;;;;;;21.48;12.90;;;;;;;16.38;80.80;96548.97;5072381;28;20051;-75
2021/06/26 01:31:17;;;;;;;16.85;11.57;;;;;;;16.37;80.86;96553.69;5071722;28;20055;-74
2021/06/26 01:33:44;;;;;;;17.33;11.50;;;;;;;16.37;80.73;96550.94;5072438;28;20052;-75
2021/06/26 01:36:10;;;;;;;17.90;11.68;;;;;;;16.37;80.83;96550.13;5071693;28;20055;-76
2021/06/26 01:38:37;;;;;;;17.42;10.98;;;;;;;16.35;80.78;96555.19;5072351;28;20042;-75
2021/06/26 01:41:05;;;;;;;17.88;11.55;;;;;;;16.31;80.45;96544.09;5071970;28;20044;-75
2021/06/26 01:43:32;;;;;;;18.80;11.98;;;;;;;16.25;80.32;96545.50;5072122;28;20634;-75
2021/06/26 01:45:58;;;;;;;16.92;10.80;;;;;;;16.27;80.54;96548.69;5072112;28;20040;-74
2021/06/26 01:48:25;;;;;;;18.00;10.43;;;;;;;16.27;80.38;96551.44;5071434;28;20044;-75
2021/06/26 01:50:53;;;;;;;16.52;11.32;;;;;;;16.27;80.29;96551.44;5073003;28;20048;-77
2021/06/26 01:53:20;;;;;;;15.90;10.70;;;;;;;16.25;80.16;96545.50;5072763;28;20446;-76
2021/06/26 01:55:46;;;;;;;16.30;10.60;;;;;;;16.24;80.09;96543.13;5072117;28;20051;-77
2021/06/26 01:58:14;;;;;;;15.75;11.52;;;;;;;16.20;80.23;96548.50;5071431;28;20041;-76
2021/06/26 02:00:41;;;;;;;15.45;11.43;;;;;;;16.18;80.06;96545.28;5071653;28;20050;-77
2021/06/26 02:03:07;;;;;;;17.75;12.27;;;;;;;16.20;80.53;96547.69;5070810;28;20494;-77
2021/06/26 02:05:34;;;;;;;16.20;11.30;;;;;;;16.22;80.24;96550.88;5071578;28;20409;-77
2021/06/26 02:08:01;;;;;;;16.95;10.95;;;;;;;16.23;79.78;96550.53;5071789;28;20059;-77
2021/06/26 02:10:27;;;;;;;15.25;10.60;;;;;;;16.25;79.31;96551.00;5071374;28;20068;-76
2021/06/26 02:12:54;;;;;;;14.02;9.88;;;;;;;16.22;79.12;96550.88;5071543;28;20044;-77
2021/06/26 02:15:22;;;;;;;16.15;10.43;;;;;;;16.18;79.29;96546.09;5071096;28;20048;-77
2021/06/26 02:17:48;;;;;;;15.25;10.75;;;;;;;16.13;79.23;96551.03;5071410;28;20549;-78
2021/06/26 02:20:15;;;;;;;18.83;11.00;;;;;;;16.11;79.59;96545.09;5071095;28;20051;-77
2021/06/26 02:22:43;;;;;;;13.63;10.30;;;;;;;16.10;79.85;96543.50;5071290;28;20048;-77
2021/06/26 02:25:11;;;;;;;14.18;9.73;;;;;;;16.09;79.78;96541.91;5070994;28;20102;-78
2021/06/26 02:27:37;;;;;;;14.18;9.85;;;;;;;16.08;79.40;96534.81;5071407;28;20071;-77
2021/06/26 02:30:06;;;;;;;16.75;10.13;;;;;;;16.10;79.17;96543.50;5070992;28;20048;-77
2021/06/26 02:32:33;;;;;;;14.30;9.98;;;;;;;16.07;79.04;96535.94;5071237;28;20411;-78
2021/06/26 02:35:00;;;;;;;12.73;8.95;;;;;;;16.05;79.48;96538.25;5071289;28;20055;-76
2021/06/26 02:37:26;;;;;;;15.68;10.60;;;;;;;16.04;78.76;96536.66;5070883;28;20511;-76
2021/06/26 02:39:53;;;;;;;13.93;9.30;;;;;;;15.99;78.92;96542.41;5071209;28;20043;-76
2021/06/26 02:42:20;;;;;;;14.75;10.30;;;;;;;15.96;79.10;96537.59;5070388;28;20057;-74
2021/06/26 02:44:46;;;;;;;16.05;10.18;;;;;;;15.94;79.57;96539.91;5071269;28;20044;-77
2021/06/26 02:47:13;;;;;;;14.35;10.30;;;;;;;15.90;79.86;96537.84;5070199;28;20083;-76
2021/06/26 02:49:41;;;;;;;19.13;10.43;;;;;;;15.88;79.97;96540.13;5071104;28;20040;-77
2021/06/26 02:52:08;;;;;;;13.07;9.13;;;;;;;15.86;79.72;96538.88;5070604;28;20045;-77
2021/06/26 02:54:34;;;;;;;13.10;9.38;;;;;;;15.85;79.93;96546.31;5071094;28;20410;-78
2021/06/26 02:57:01;;;;;;;15.73;9.93;;;;;;;15.82;79.84;96549.78;5070872;28;20068;-78
2021/06/26 02:59:27;;;;;;;14.77;9.75;;;;;;;15.79;79.71;96544.16;5070961;28;20474;-77
2021/06/26 03:01:54;;;;;;;13.00;9.38;;;;;;;15.78;79.67;96554.34;5070564;28;20501;-77
2021/06/26 03:04:21;;;;;;;12.48;9.30;;;;;;;15.81;78.98;96553.63;5070616;28;20044;-77
2021/06/26 03:06:49;;;;;;;12.93;9.15;;;;;;;15.79;78.72;96544.97;5071110;28;20040;-77
2021/06/26 03:09:15;;;;;;;13.45;9.50;;;;;;;15.73;78.95;96546.34;5070500;28;20055;-77
2021/06/26 03:11:42;;;;;;;15.63;9.43;;;;;;;15.68;79.76;96543.84;5071201;28;20395;-76
2021/06/26 03:14:08;;;;;;;15.55;9.90;;;;;;;15.66;80.07;96551.63;5070483;28;20067;-76
2021/06/26 03:16:35;;;;;;;15.23;9.45;;;;;;;15.65;80.15;96550.81;5071159;28;20407;-76
2021/06/26 03:19:01;;;;;;;14.05;9.82;;;;;;;15.63;80.51;96552.31;5070813;28;20048;-77
2021/06/26 03:21:28;;;;;;;12.80;9.48;;;;;;;15.62;80.55;96556.19;5070480;28;20045;-76
2021/06/26 03:23:56;;;;;;;17.17;10.10;;;;;;;15.60;80.52;96561.19;5070738;28;20036;-76
2021/06/26 03:26:22;;;;;;;17.77;10.18;;;;;;;15.58;80.33;96552.53;5070399;28;20110;-77
2021/06/26 03:28:49;;;;;;;13.68;9.52;;;;;;;15.59;80.12;96556.84;5070640;28;20044;-77
2021/06/26 03:31:16;;;;;;;16.90;10.10;;;;;;;15.57;80.02;96557.22;5070190;28;20058;-75
2021/06/26 03:33:42;;;;;;;13.70;9.68;;;;;;;15.57;79.97;96548.19;5070607;28;20048;-77
2021/06/26 03:36:09;;;;;;;16.50;10.27;;;;;;;15.58;80.15;96549.78;5070307;28;20048;-75
2021/06/26 03:38:36;;;;;;;13.50;9.10;;;;;;;15.57;80.07;96553.66;5070719;28;20087;-74
2021/06/26 03:41:04;;;;;;;16.35;9.77;;;;;;;15.57;80.37;96559.16;5070358;28;20059;-75
2021/06/26 03:43:30;;;;;;;12.63;8.43;;;;;;;15.57;80.22;96561.91;5070653;28;20403;-76
2021/06/26 03:45:57;;;;;;;13.57;9.40;;;;;;;15.57;80.34;96564.66;5070798;28;20045;-75
2021/06/26 03:48:23;;;;;;;14.38;9.90;;;;;;;15.57;80.32;96570.94;5069915;28;20040;-75
2021/06/26 03:50:50;;;;;;;13.45;9.40;;;;;;;15.60;79.99;96570.22;5070667;28;20040;-74
2021/06/26 03:53:17;;;;;;;12.05;8.13;;;;;;;15.55;80.18;96573.22;5069911;28;20074;-75
2021/06/26 03:55:51;;;;;;;10.63;7.75;;;;;;;15.54;79.89;96571.63;5070557;28;20043;-74
2021/06/26 03:58:19;;;;;;;9.85;7.30;;;;;;;15.58;79.95;96571.72;5070101;28;20041;-75
2021/06/26 04:00:46;;;;;;;12.30;8.18;;;;;;;15.57;79.83;96572.88;5073595;28;20048;-74
2021/06/26 04:03:12;;;;;;;12.80;7.68;;;;;;;15.56;79.87;96563.06;5073401;28;20051;-76
2021/06/26 04:05:39;;;;;;;10.48;7.82;;;;;;;15.56;79.84;96560.31;5074064;28;20048;-76
2021/06/26 04:08:06;;;;;;;12.07;7.28;;;;;;;15.56;79.84;96566.59;5073704;28;20068;-77
2021/06/26 04:10:33;;;;;;;11.60;7.57;;;;;;;15.54;79.72;96566.13;5074024;28;20044;-76
2021/06/26 04:12:59;;;;;;;10.30;7.47;;;;;;;15.52;79.71;96559.41;5073911;28;20044;-77
2021/06/26 04:15:27;;;;;;;11.68;7.47;;;;;;;15.54;79.75;96566.13;5073649;28;20063;-75
2021/06/26 04:17:53;;;;;;;9.95;7.57;;;;;;;15.55;79.78;96566.91;5073871;28;20048;-74
2021/06/26 04:20:20;;;;;;;10.57;6.95;;;;;;;15.53;79.71;96566.47;5073526;28;20048;-74
2021/06/26 04:22:47;;;;;;;14.63;8.45;;;;;;;15.55;79.88;96566.91;5073616;28;20545;-75
2021/06/26 04:25:15;;;;;;;11.65;7.63;;;;;;;15.56;79.96;96569.34;5073146;28;20110;-74
2021/06/26 04:27:41;;;;;;;12.32;8.07;;;;;;;15.63;79.93;96572.31;5073918;28;20043;-74
2021/06/26 04:30:09;;;;;;;11.45;7.25;;;;;;;15.66;79.28;96573.59;5072907;28;20060;-74
2021/06/26 04:32:38;;;;;;;12.15;7.75;;;;;;;15.68;79.63;96576.00;5073290;28;20487;-74
2021/06/26 04:35:07;;;;;;;12.75;8.27;;;;;;;15.72;80.26;96569.47;5073301;28;20049;-74
2021/06/26 04:37:34;;;;;;;10.73;8.40;;;;;;;15.76;80.63;96559.38;5073463;28;20057;-76
2021/06/26 04:40:00;;;;;;;14.43;8.20;;;;;;;15.78;80.71;96559.84;5073639;28;20044;-76
2021/06/26 04:42:27;;;;;;;15.60;8.98;;;;;;;15.79;80.62;96558.69;5073243;28;20051;-76
2021/06/26 04:44:54;;;;;;;14.65;8.57;;;;;;;15.84;80.49;96558.44;5073169;28;20513;-76
2021/06/26 04:47:20;;;;;;;17.63;8.43;;;;;;;15.90;80.08;96562.53;5072670;28;20049;-75
2021/06/26 04:49:48;;;;;;;11.32;7.90;;;;;;;15.94;80.08;96557.16;5073257;28;20525;-75
2021/06/26 04:52:15;;;;;;;12.25;8.50;;;;;;;15.93;80.03;96558.31;5072800;28;20043;-75
2021/06/26 04:54:41;;;;;;;13.57;8.73;;;;;;;15.94;80.31;96556.38;5073296;28;20051;-75
2021/06/26 04:57:08;;;;;;;19.83;9.30;;;;;;;15.90;80.22;96557.06;5072652;28;20048;-75
2021/06/26 04:59:35;;;;;;;16.45;10.80;;;;;;;15.96;80.37;96559.56;5072983;28;20045;-75
2021/06/26 05:02:01;;;;;;;13.30;9.35;;;;;;;16.03;80.51;96559.78;5072722;28;20402;-75
2021/06/26 05:04:28;;;;;;;17.35;10.35;;;;;;;16.10;80.83;96559.97;5072704;28;20051;-75
2021/06/26 05:06:56;;;;;;;14.27;10.00;;;;;;;16.15;81.10;96555.03;5072969;28;20054;-75
2021/06/26 05:09:22;;;;;;;19.15;12.63;;;;;;;16.16;80.94;96553.09;5072419;28;20499;-75
2021/06/26 05:11:49;;;;;;;19.15;11.80;;;;;;;16.17;80.94;96543.69;5072635;28;20048;-76
2021/06/26 05:14:16;;;;;;;17.27;11.57;;;;;;;16.21;81.06;96549.28;5072141;28;20501;-75
2021/06/26 05:16:42;;;;;;;23.25;12.07;;;;;;;16.28;81.14;96554.97;5072757;28;20449;-76
2021/06/26 05:19:09;;;;;;;14.40;10.27;;;;;;;16.31;80.39;96560.59;5072106;28;20052;-75
2021/06/26 05:21:36;;;;;;;14.93;10.38;;;;;;;16.33;79.84;96558.28;5072630;28;20495;-75
2021/06/26 05:24:04;;;;;;;12.65;9.68;;;;;;;16.41;79.95;96556.53;5072012;28;20052;-75
2021/06/26 05:26:31;;;;;;;14.73;10.23;;;;;;;16.42;79.66;96560.88;5072618;28;20041;-74
2021/06/26 05:28:57;;;;;;;14.95;9.00;;;;;;;16.43;79.30;96557.78;5072420;28;20048;-75
2021/06/26 05:31:24;;;;;;;12.88;9.48;;;;;;;16.53;79.33;96555.69;5071761;28;20491;-75
2021/06/26 05:33:50;;;;;;;14.18;9.43;;;;;;;16.61;79.28;96557.47;5072355;28;20037;-76
2021/06/26 05:36:17;;;;;;;14.40;9.07;;;;;;;16.66;79.07;96559.97;5071870;28;20056;-76
2021/06/26 05:38:43;;;;;;;14.43;8.85;;;;;;;16.77;79.14;96563.84;5072145;28;20044;-74
2021/06/26 05:41:11;;;;;;;12.77;8.43;;;;;;;16.85;79.11;96564.81;5071775;28;20049;-75
2021/06/26 05:43:38;;;;;;;14.35;10.23;;;;;;;16.90;78.56;96565.34;5071921;28;20522;-75
2021/06/26 05:46:05;;;;;;;16.38;10.80;;;;;;;16.94;77.67;96566.22;5071761;28;20518;-75
2021/06/26 05:48:31;;;;;;;15.70;9.80;;;;;;;17.00;77.56;96566.75;5072081;28;20044;-76
2021/06/26 05:50:58;;;;;;;14.30;9.98;;;;;;;17.07;77.14;96566.13;5071948;28;20044;-75
2021/06/26 05:53:25;;;;;;;14.88;10.95;;;;;;;17.06;76.19;96559.03;5071377;28;20052;-76
2021/06/26 05:55:58;;;;;;;14.85;10.15;;;;;;;17.11;76.71;96564.28;5072049;28;20044;-75
2021/06/26 05:58:28;;;;;;;18.92;11.98;;;;;;;17.17;76.95;96557.34;5053560;28;20056;-76
2021/06/26 06:00:54;;;;;;;18.60;12.55;;;;;;;17.17;76.76;96554.59;5071683;28;20483;-75
2021/06/26 06:03:21;;;;;;;17.95;12.48;;;;;;;17.27;77.13;96562.31;5071163;28;20384;-75
2021/06/26 06:05:47;;;;;;;19.70;12.23;;;;;;;17.31;77.30;96563.22;5071553;28;20045;-75
2021/06/26 06:08:14;;;;;;;18.83;12.82;;;;;;;17.35;76.99;96558.59;5071377;28;20052;-75
2021/06/26 06:10:41;;;;;;;18.90;13.70;;;;;;;17.38;76.67;96557.91;5071678;28;20048;-75
2021/06/26 06:13:12;;;;;;;17.30;12.57;;;;;;;17.47;76.85;96560.44;5071185;28;20048;-75
2021/06/26 06:15:41;;;;;;;22.45;13.40;;;;;;;17.54;76.55;96554.28;5071762;28;20045;-76
2021/06/26 06:18:07;;;;;;;20.40;13.95;;;;;;;17.58;75.89;96555.97;5071079;28;20519;-75
2021/06/26 06:20:34;;;;;;;20.48;13.35;;;;;;;17.66;76.12;96551.44;5071410;28;20052;-76
2021/06/26 06:23:00;;;;;;;22.48;13.88;;;;;;;17.77;76.51;96552.50;5070633;28;20047;-75
2021/06/26 06:25:27;;;;;;;20.73;13.60;;;;;;;17.84;76.38;96557.38;5070811;28;20115;-76
2021/06/26 06:27:53;;;;;;;21.17;14.23;;;;;;;17.93;75.79;96549.72;5071441;28;20040;-75
2021/06/26 06:30:21;;;;;;;20.80;12.70;;;;;;;17.97;75.19;96550.59;5070773;28;20510;-76
2021/06/26 06:32:48;;;;;;;17.23;12.75;;;;;;;17.97;74.29;96551.38;5071314;28;20044;-77
2021/06/26 06:35:15;;;;;;;16.73;11.43;;;;;;;18.11;74.90;96550.06;5070845;28;20123;-75
2021/06/26 06:37:41;;;;;;;16.80;12.30;;;;;;;18.18;74.35;96550.25;5071127;28;20406;-75
2021/06/26 06:40:11;;;;;;;16.35;11.93;;;;;;;18.26;74.23;96546.44;5070870;28;20526;-75
2021/06/26 06:42:37;;;;;;;19.63;12.90;;;;;;;18.29;73.33;96548.50;5071134;28;20067;-76
2021/06/26 06:45:06;;;;;;;17.27;11.82;;;;;;;18.31;73.05;96548.91;5070738;28;20048;-76
2021/06/26 06:47:32;;;;;;;18.70;11.65;;;;;;;18.36;71.66;96545.06;5071004;28;20040;-75
2021/06/26 06:50:00;;;;;;;17.25;11.27;;;;;;;18.41;73.14;96539.28;5071176;28;20044;-75
2021/06/26 06:52:26;;;;;;;16.80;11.43;;;;;;;18.41;72.71;96542.81;5070792;28;20055;-75
2021/06/26 06:54:53;;;;;;;13.93;10.15;;;;;;;18.49;72.75;96543.78;5071174;28;20056;-75
2021/06/26 06:57:22;;;;;;;15.20;11.13;;;;;;;18.56;72.10;96543.91;5070619;28;20052;-74
2021/06/26 06:59:49;;;;;;;16.75;11.52;;;;;;;18.58;72.16;96546.28;5071167;28;20040;-77
2021/06/26 07:02:15;;;;;;;15.95;11.13;;;;;;;18.63;72.22;96545.97;5070405;28;20487;-77
2021/06/26 07:04:42;;;;;;;12.13;9.70;;;;;;;18.69;71.15;96541.81;5070840;28;20487;-77
2021/06/26 07:07:10;;;;;;;16.08;11.35;;;;;;;18.81;69.84;96547.16;5070422;28;20045;-78
2021/06/26 07:09:36;;;;;;;16.30;10.80;;;;;;;18.85;71.17;96550.78;5071061;28;20037;-77
2021/06/26 07:12:03;;;;;;;13.00;9.50;;;;;;;18.91;71.16;96549.31;5070467;28;20041;-77
2021/06/26 07:14:30;;;;;;;11.98;8.95;;;;;;;18.89;69.89;96548.88;5070918;28;20044;-76
2021/06/26 07:16:56;;;;;;;12.70;9.55;;;;;;;18.85;68.46;96553.53;5070919;28;20044;-76
2021/06/26 07:19:23;;;;;;;11.32;8.68;;;;;;;18.85;68.21;96550.78;5070567;28;20040;-76
2021/06/26 07:21:49;;;;;;;12.63;8.25;;;;;;;18.91;69.19;96543.78;5070937;28;20048;-78
2021/06/26 07:24:17;;;;;;;13.50;8.35;;;;;;;18.98;67.58;96548.63;5070368;28;20067;-76
2021/06/26 07:26:44;;;;;;;10.27;8.13;;;;;;;19.12;68.11;96540.59;5070714;28;20578;-76
2021/06/26 07:29:11;;;;;;;14.20;7.55;;;;;;;19.20;68.83;96539.53;5070249;28;20056;-74
2021/06/26 07:31:37;;;;;;;11.07;8.15;;;;;;;19.32;68.46;96535.00;5070709;28;20052;-76
2021/06/26 07:34:04;;;;;;;11.50;8.70;;;;;;;19.36;67.80;96536.63;5072338;28;20514;-76
2021/06/26 07:36:30;;;;;;;13.13;9.18;;;;;;;19.40;67.73;96534.72;5074551;28;20639;-76
2021/06/26 07:38:57;;;;;;;18.38;12.27;;;;;;;19.41;67.75;96536.31;5074435;28;20078;-76
2021/06/26 07:41:25;;;;;;;16.80;9.25;;;;;;;19.47;67.96;96531.28;5074170;28;20040;-76
2021/06/26 07:43:51;;;;;;;10.90;8.43;;;;;;;19.61;66.19;96530.72;5074433;28;20041;-76
2021/06/26 07:46:18;;;;;;;11.98;8.20;;;;;;;19.66;67.28;96530.41;5073919;28;20055;-76
2021/06/26 07:48:45;;;;;;;11.05;7.43;;;;;;;19.72;67.72;96526.16;5074256;28;20055;-78
2021/06/26 07:51:12;;;;;;;9.70;7.35;;;;;;;19.81;65.80;96510.91;5073754;28;20044;-76
2021/06/26 07:53:38;;;;;;;10.13;6.70;;;;;;;19.90;66.12;96509.84;5074408;28;20044;-76
2021/06/26 07:56:05;;;;;;;11.32;7.95;;;;;;;20.04;67.00;96510.78;5073738;28;20470;-76
2021/06/26 07:58:33;;;;;;;9.68;7.25;;;;;;;20.14;64.23;96508.53;5074204;28;20048;-76
2021/06/26 08:00:59;;;;;;;10.70;5.95;;;;;;;20.19;64.06;96511.75;5074020;28;20064;-76
2021/06/26 08:03:26;;;;;;;10.13;6.50;;;;;;;20.31;65.12;96516.28;5073584;28;20047;-77
2021/06/26 08:05:54;;;;;;;9.40;7.20;;;;;;;20.39;64.51;96508.84;5074015;28;20036;-77
2021/06/26 08:08:21;;;;;;;10.10;7.00;;;;;;;20.52;65.20;96508.25;5073758;28;20052;-77
2021/06/26 08:10:48;;;;;;;11.18;6.57;;;;;;;20.57;63.09;96509.88;5073863;28;20044;-76
2021/06/26 08:13:14;;;;;;;8.20;5.95;;;;;;;20.69;62.75;96514.34;5073428;28;20415;-76
2021/06/26 08:15:44;;;;;;;7.60;6.13;;;;;;;20.92;62.77;96512.19;5073841;28;20045;-77
2021/06/26 08:18:12;;;;;;;10.55;7.20;;;;;;;21.61;60.09;96508.78;5073297;28;20510;-76
2021/06/26 08:20:39;;;;;;;9.02;5.90;;;;;;;22.96;54.89;96510.56;5073659;28;20043;-77
2021/06/26 08:23:06;;;;;;;10.85;5.03;;;;;;;24.10;52.08;96505.69;5073233;28;20048;-76
2021/06/26 08:25:33;;;;;;;6.60;5.10;;;;;;;25.04;49.30;96498.44;5073514;28;20045;-77
2021/06/26 08:28:00;;;;;;;6.80;5.70;;;;;;;26.03;47.07;96496.00;5073508;28;20419;-76
2021/06/26 08:30:27;;;;;;;8.10;5.80;;;;;;;26.46;45.67;96499.09;5073387;28;20044;-76
2021/06/26 08:32:56;;;;;;;8.98;6.05;;;;;;;26.37;45.33;96495.22;5073190;28;20049;-76
2021/06/26 08:35:22;;;;;;;8.45;5.28;;;;;;;26.88;44.46;96496.91;5072994;28;20127;-76
2021/06/26 08:37:50;;;;;;;5.93;4.40;;;;;;;27.47;44.47;96488.03;5073235;28;20047;-77
2021/06/26 08:40:18;;;;;;;8.38;5.18;;;;;;;28.11;42.07;96477.69;5072837;28;20040;-77
2021/06/26 08:42:45;;;;;;;6.80;4.82;;;;;;;28.30;41.71;96476.88;5073241;28;20487;-77
2021/06/26 08:45:15;;;;;;;7.30;4.72;;;;;;;28.37;41.39;96478.00;5071963;28;20048;-77
2021/06/26 08:47:41;;;;;;;8.40;5.47;;;;;;;27.97;41.85;96480.75;5072897;28;20045;-77
2021/06/26 08:50:10;;;;;;;5.75;4.50;;;;;;;27.71;44.01;96483.22;5072637;28;20044;-76
2021/06/26 08:52:37;;;;;;;6.18;4.88;;;;;;;27.82;42.98;96478.25;5073007;28;20049;-76
2021/06/26 08:55:04;;;;;;;7.45;5.72;;;;;;;27.52;43.24;96478.38;5072398;28;20048;-75
2021/06/26 08:57:32;;;;;;;8.15;5.65;;;;;;;26.97;43.83;96474.03;5055034;28;20047;-76
2021/06/26 09:00:00;;;;;;;9.20;5.93;;;;;;;26.92;44.78;96469.72;5073092;28;20040;-76
2021/06/26 09:02:28;;;;;;;10.57;5.63;;;;;;;26.71;44.24;96470.81;5072191;28;20063;-77
2021/06/26 09:04:55;;;;;;;8.13;4.72;;;;;;;26.07;47.04;96466.06;5072931;28;20079;-76
2021/06/26 09:07:30;;;;;;;6.05;4.80;;;;;;;25.65;48.02;96461.72;5072469;28;20055;-77
2021/06/26 09:09:57;;;;;;;7.32;5.15;;;;;;;25.24;47.69;96468.88;5072782;28;20048;-76
2021/06/26 09:12:26;;;;;;;8.27;5.20;;;;;;;24.94;46.26;96468.69;5072258;28;20040;-77
2021/06/26 09:14:53;;;;;;;6.80;4.95;;;;;;;24.76;50.39;96462.47;5072703;28;20037;-77
2021/06/26 09:17:31;;;;;;;9.10;5.40;;;;;;;24.45;50.04;96459.47;5072206;28;20040;-76
2021/06/26 09:20:00;;;;;;;5.85;4.55;;;;;;;24.17;50.91;96457.56;5072809;28;20079;-77
2021/06/26 09:22:38;;;;;;;6.35;4.63;;;;;;;23.89;51.16;96456.50;5072219;28;20045;-77
2021/06/26 09:25:25;;;;;;;5.63;4.60;;;;;;;23.93;51.41;96459.25;5072031;28;20036;-76
2021/06/26 09:27:52;;;;;;;6.47;4.88;;;;;;;24.04;53.44;96462.00;5072323;28;20051;-77
2021/06/26 09:30:31;;;;;;;5.40;4.18;;;;;;;24.18;51.47;96454.41;5071937;28;20052;-77
2021/06/26 09:32:57;;;;;;;5.45;4.78;;;;;;;24.24;53.33;96454.75;5072270;28;20044;-77
2021/06/26 09:35:24;;;;;;;5.05;4.05;;;;;;;24.10;49.90;96461.19;5071853;28;20044;-77
2021/06/26 09:37:52;;;;;;;5.75;4.40;;;;;;;24.00;55.07;96464.78;5072349;28;20052;-77
2021/06/26 09:40:28;;;;;;;5.70;4.68;;;;;;;24.13;52.05;96459.59;5071640;28;20048;-76
2021/06/26 09:42:55;;;;;;;4.95;3.97;;;;;;;24.30;52.86;96458.72;5072362;28;20047;-76
2021/06/26 09:45:22;;;;;;;6.93;4.00;;;;;;;24.22;50.05;96451.56;5071485;28;20053;-76
2021/06/26 09:47:48;;;;;;;5.43;4.38;;;;;;;24.12;52.42;96456.03;5072026;28;20059;-76
2021/06/26 09:50:17;;;;;;;5.50;4.07;;;;;;;24.14;48.93;96450.84;5071449;28;20522;-78
2021/06/26 09:52:49;;;;;;;5.15;4.20;;;;;;;24.25;52.17;96448.00;5071894;28;20036;-77
2021/06/26 09:55:23;;;;;;;11.48;4.82;;;;;;;24.43;55.25;96445.97;5071457;28;20056;-77
2021/06/26 09:57:52;;;;;;;6.22;4.45;;;;;;;24.56;52.87;96446.25;5070707;28;20116;-77
2021/06/26 10:00:21;;;;;;;5.22;3.90;;;;;;;24.72;50.31;96443.75;5071324;28;20499;-77
2021/06/26 10:02:48;;;;;;;5.20;4.03;;;;;;;24.88;49.29;96436.91;5071734;28;20041;-77
2021/06/26 10:05:15;;;;;;;5.53;3.83;;;;;;;25.01;47.81;96435.22;5071269;28;20048;-77
2021/06/26 10:07:43;;;;;;;5.18;3.80;;;;;;;25.10;48.18;96438.31;5071786;28;20037;-79
2021/06/26 10:10:12;;;;;;;5.65;4.07;;;;;;;25.29;49.21;96444.53;5071232;28;20495;-76
2021/06/26 10:12:41;;;;;;;5.97;4.22;;;;;;;25.46;48.41;96443.56;5071445;28;20051;-79
2021/06/26 10:15:09;;;;;;;4.13;3.72;;;;;;;25.53;48.59;96443.53;5071235;28;20064;-77
2021/06/26 10:17:36;;;;;;;5.10;4.00;;;;;;;25.33;45.55;96428.59;5071504;28;20044;-76
2021/06/26 10:20:05;;;;;;;6.60;4.00;;;;;;;25.38;50.03;96442.06;5070938;28;20052;-76
2021/06/26 10:22:36;;;;;;;7.22;4.22;;;;;;;25.53;46.51;96435.16;5071381;28;20414;-77
2021/06/26 10:25:03;;;;;;;6.13;4.10;;;;;;;25.58;50.14;96436.69;5070913;28;20523;-77
2021/06/26 10:27:29;;;;;;;3.97;3.35;;;;;;;25.59;45.00;96425.13;5071204;28;20496;-76
2021/06/26 10:29:57;;;;;;;12.02;4.88;;;;;;;25.57;48.44;96427.53;5071217;28;20415;-77
2021/06/26 10:32:24;;;;;;;7.05;3.70;;;;;;;25.46;47.23;96433.22;5070710;28;20044;-82
2021/06/26 10:34:53;;;;;;;4.93;3.40;;;;;;;25.33;47.32;96428.59;5071273;28;20052;-77
2021/06/26 10:37:22;;;;;;;6.47;3.70;;;;;;;25.28;48.72;96427.03;5070628;28;20047;-77
2021/06/26 10:40:01;;;;;;;5.70;3.78;;;;;;;25.03;46.52;96427.22;5071118;28;20052;-77
2021/06/26 10:42:33;;;;;;;5.55;3.70;;;;;;;24.82;48.18;96428.19;5071119;28;20032;-77
2021/06/26 10:45:01;;;;;;;4.95;3.88;;;;;;;24.84;48.14;96424.97;5071120;28;20514;-77
2021/06/26 10:47:36;;;;;;;4.50;3.75;;;;;;;24.98;51.43;96425.66;5070619;28;20483;-77
2021/06/26 10:50:11;;;;;;;4.07;3.40;;;;;;;25.16;46.73;96425.56;5070659;28;20041;-77
2021/06/26 10:52:47;;;;;;;7.32;4.45;;;;;;;25.28;50.48;96420.69;5071052;28;20045;-77
2021/06/26 10:55:14;;;;;;;4.90;3.65;;;;;;;25.36;50.13;96413.81;5070607;28;20053;-77
2021/06/26 10:57:47;;;;;;;4.85;3.53;;;;;;;25.37;48.64;96429.31;5071059;28;20515;-77
2021/06/26 11:00:16;;;;;;;5.97;4.38;;;;;;;25.20;49.63;96420.72;5070429;28;20102;-77
2021/06/26 11:02:45;;;;;;;6.13;3.88;;;;;;;25.27;48.56;96413.50;5070598;28;20044;-79
2021/06/26 11:05:13;;;;;;;4.47;3.67;;;;;;;25.22;48.06;96417.53;5070581;28;20051;-77
2021/06/26 11:07:40;;;;;;;5.88;4.18;;;;;;;25.08;46.97;96412.88;5070484;28;20055;-77
2021/06/26 11:10:10;;;;;;;5.22;3.83;;;;;;;25.07;49.58;96419.66;5070469;28;20098;-77
2021/06/26 11:12:42;;;;;;;5.15;4.03;;;;;;;25.15;50.16;96415.59;5070879;28;20056;-77
2021/06/26 11:15:10;;;;;;;4.20;3.58;;;;;;;25.17;49.83;96416.00;5070384;28;20052;-77
2021/06/26 11:17:39;;;;;;;6.93;4.20;;;;;;;24.98;48.31;96408.16;5070861;28;20059;-77
2021/06/26 11:20:10;;;;;;;5.70;4.35;;;;;;;24.75;49.91;96424.69;5070251;28;20048;-74
2021/06/26 11:22:37;;;;;;;6.28;4.43;;;;;;;24.64;50.52;96416.38;5070476;28;20509;-76
2021/06/26 11:25:06;;;;;;;6.18;4.28;;;;;;;24.66;51.14;96408.41;5070295;28;20045;-76